sensor_id;sensor_type;location;lat;lon;timestamp;pressure;altitude;pressure_sealevel;temperature;humidity
21742;BME280;11033;47.490;11.116;2023-03-25T00:02:05;92679.00;;;7.56;89.23
21742;BME280;11033;47.490;11.116;2023-03-25T00:04:30;92680.56;;;7.36;90.31
21742;BME280;11033;47.490;11.116;2023-03-25T00:06:56;92671.44;;;7.32;91.60
21742;BME280;11033;47.490;11.116;2023-03-25T00:09:22;92678.16;;;7.20;92.91
21742;BME280;11033;47.490;11.116;2023-03-25T00:11:51;92688.88;;;7.25;92.38
21742;BME280;11033;47.490;11.116;2023-03-25T00:14:17;92690.31;;;7.13;94.69
21742;BME280;11033;47.490;11.116;2023-03-25T00:16:43;92701.41;;;7.15;93.32
21742;BME280;11033;47.490;11.116;2023-03-25T00:19:13;92692.88;;;7.21;92.20
21742;BME280;11033;47.490;11.116;2023-03-25T00:21:40;92686.69;;;7.14;91.66
21742;BME280;11033;47.490;11.116;2023-03-25T00:24:11;92686.97;;;7.04;91.01
21742;BME280;11033;47.490;11.116;2023-03-25T00:26:37;92690.47;;;6.96;91.17
21742;BME280;11033;47.490;11.116;2023-03-25T00:29:08;92678.75;;;6.92;90.84
21742;BME280;11033;47.490;11.116;2023-03-25T00:31:33;92677.66;;;6.87;91.27
21742;BME280;11033;47.490;11.116;2023-03-25T00:33:59;92674.88;;;6.88;90.74
21742;BME280;11033;47.490;11.116;2023-03-25T00:36:24;92678.91;;;6.76;89.29
21742;BME280;11033;47.490;11.116;2023-03-25T00:38:49;92684.66;;;6.57;90.92
21742;BME280;11033;47.490;11.116;2023-03-25T00:41:20;92673.13;;;6.66;91.31
21742;BME280;11033;47.490;11.116;2023-03-25T00:43:54;92681.34;;;6.63;90.29
21742;BME280;11033;47.490;11.116;2023-03-25T00:46:22;92675.47;;;6.61;89.49
21742;BME280;11033;47.490;11.116;2023-03-25T00:48:48;92678.72;;;6.63;90.65
21742;BME280;11033;47.490;11.116;2023-03-25T00:51:15;92678.97;;;6.53;90.83
21742;BME280;11033;47.490;11.116;2023-03-25T00:53:45;92680.53;;;6.40;94.10
21742;BME280;11033;47.490;11.116;2023-03-25T00:56:11;92693.25;;;6.43;94.94
21742;BME280;11033;47.490;11.116;2023-03-25T00:58:36;92683.72;;;6.50;94.25
21742;BME280;11033;47.490;11.116;2023-03-25T01:01:10;92680.47;;;6.48;93.55
21742;BME280;11033;47.490;11.116;2023-03-25T01:03:38;92683.59;;;6.43;93.96
21742;BME280;11033;47.490;11.116;2023-03-25T01:06:16;92665.81;;;6.39;93.74
21742;BME280;11033;47.490;11.116;2023-03-25T01:08:42;92670.00;;;6.48;93.11
21742;BME280;11033;47.490;11.116;2023-03-25T01:11:20;92669.72;;;6.43;92.89
21742;BME280;11033;47.490;11.116;2023-03-25T01:13:46;92671.41;;;6.35;92.63
21742;BME280;11033;47.490;11.116;2023-03-25T01:16:12;92675.72;;;6.28;94.06
21742;BME280;11033;47.490;11.116;2023-03-25T01:18:37;92661.97;;;6.49;91.04
21742;BME280;11033;47.490;11.116;2023-03-25T01:21:06;92652.31;;;6.50;91.15
21742;BME280;11033;47.490;11.116;2023-03-25T01:23:33;92643.84;;;6.48;90.62
21742;BME280;11033;47.490;11.116;2023-03-25T01:25:59;92653.63;;;6.54;91.49
21742;BME280;11033;47.490;11.116;2023-03-25T01:28:25;92655.00;;;6.42;92.71
21742;BME280;11033;47.490;11.116;2023-03-25T01:30:52;92657.97;;;6.39;91.77
21742;BME280;11033;47.490;11.116;2023-03-25T01:33:23;92647.53;;;6.39;92.60
21742;BME280;11033;47.490;11.116;2023-03-25T01:35:48;92650.38;;;6.52;90.80
21742;BME280;11033;47.490;11.116;2023-03-25T01:38:14;92637.69;;;6.41;91.28
21742;BME280;11033;47.490;11.116;2023-03-25T01:40:39;92632.91;;;6.44;90.77
21742;BME280;11033;47.490;11.116;2023-03-25T01:43:08;92641.66;;;6.36;91.85
21742;BME280;11033;47.490;11.116;2023-03-25T01:45:37;92638.84;;;6.38;91.65
21742;BME280;11033;47.490;11.116;2023-03-25T01:48:36;92638.59;;;6.48;92.12
21742;BME280;11033;47.490;11.116;2023-03-25T01:51:09;92642.25;;;6.24;94.23
21742;BME280;11033;47.490;11.116;2023-03-25T01:53:37;92630.81;;;6.25;93.00
21742;BME280;11033;47.490;11.116;2023-03-25T01:56:04;92648.50;;;6.38;92.93
21742;BME280;11033;47.490;11.116;2023-03-25T01:58:31;92636.06;;;6.40;91.63
21742;BME280;11033;47.490;11.116;2023-03-25T02:00:57;92636.41;;;6.36;91.32
21742;BME280;11033;47.490;11.116;2023-03-25T02:03:25;92625.69;;;6.31;93.30
21742;BME280;11033;47.490;11.116;2023-03-25T02:08:17;92623.84;;;6.17;93.58
21742;BME280;11033;47.490;11.116;2023-03-25T02:10:46;92612.69;;;6.23;92.94
21742;BME280;11033;47.490;11.116;2023-03-25T02:13:12;92620.91;;;6.35;91.00
21742;BME280;11033;47.490;11.116;2023-03-25T02:18:29;92609.56;;;6.43;90.90
21742;BME280;11033;47.490;11.116;2023-03-25T02:27:26;92603.75;;;6.32;91.48
21742;BME280;11033;47.490;11.116;2023-03-25T02:30:23;92602.59;;;6.35;91.05
21742;BME280;11033;47.490;11.116;2023-03-25T02:38:04;92606.19;;;6.34;91.67
21742;BME280;11033;47.490;11.116;2023-03-25T02:46:07;92616.22;;;6.30;91.71
21742;BME280;11033;47.490;11.116;2023-03-25T02:48:43;92617.03;;;6.31;91.16
21742;BME280;11033;47.490;11.116;2023-03-25T02:51:17;92605.81;;;6.22;91.99
21742;BME280;11033;47.490;11.116;2023-03-25T02:53:47;92622.16;;;6.24;92.17
21742;BME280;11033;47.490;11.116;2023-03-25T02:56:15;92621.00;;;6.04;92.94
21742;BME280;11033;47.490;11.116;2023-03-25T02:58:43;92632.59;;;6.24;90.69
21742;BME280;11033;47.490;11.116;2023-03-25T03:01:10;92612.19;;;6.05;91.81
21742;BME280;11033;47.490;11.116;2023-03-25T03:03:38;92620.19;;;6.03;92.37
21742;BME280;11033;47.490;11.116;2023-03-25T03:06:05;92615.44;;;6.07;91.73
21742;BME280;11033;47.490;11.116;2023-03-25T03:08:40;92620.84;;;6.06;91.28
21742;BME280;11033;47.490;11.116;2023-03-25T03:11:12;92622.06;;;5.95;92.76
21742;BME280;11033;47.490;11.116;2023-03-25T03:16:45;92602.22;;;5.78;93.98
21742;BME280;11033;47.490;11.116;2023-03-25T03:19:38;92588.34;;;5.77;91.49
21742;BME280;11033;47.490;11.116;2023-03-25T03:24:49;92608.66;;;5.67;91.90
21742;BME280;11033;47.490;11.116;2023-03-25T03:27:23;92607.25;;;5.56;93.39
21742;BME280;11033;47.490;11.116;2023-03-25T03:32:41;92591.88;;;5.61;91.39
21742;BME280;11033;47.490;11.116;2023-03-25T03:35:19;92599.44;;;5.56;91.10
21742;BME280;11033;47.490;11.116;2023-03-25T03:37:57;92609.81;;;5.64;90.13
21742;BME280;11033;47.490;11.116;2023-03-25T03:40:26;92623.53;;;5.66;90.09
21742;BME280;11033;47.490;11.116;2023-03-25T03:43:07;92617.03;;;5.62;90.08
21742;BME280;11033;47.490;11.116;2023-03-25T03:45:39;92649.63;;;5.44;92.17
21742;BME280;11033;47.490;11.116;2023-03-25T03:48:11;92645.34;;;5.51;91.29
21742;BME280;11033;47.490;11.116;2023-03-25T03:50:46;92659.91;;;5.45;92.86
21742;BME280;11033;47.490;11.116;2023-03-25T03:53:23;92656.97;;;5.40;92.39
21742;BME280;11033;47.490;11.116;2023-03-25T03:56:10;92677.84;;;5.48;92.71
21742;BME280;11033;47.490;11.116;2023-03-25T03:58:39;92681.66;;;5.37;92.46
21742;BME280;11033;47.490;11.116;2023-03-25T04:01:10;92702.63;;;5.52;92.30
21742;BME280;11033;47.490;11.116;2023-03-25T04:03:52;92735.66;;;5.37;93.43
21742;BME280;11033;47.490;11.116;2023-03-25T04:06:32;92741.53;;;5.39;96.24
21742;BME280;11033;47.490;11.116;2023-03-25T04:09:06;92759.72;;;5.63;95.08
21742;BME280;11033;47.490;11.116;2023-03-25T04:11:40;92752.84;;;5.62;96.26
21742;BME280;11033;47.490;11.116;2023-03-25T04:14:08;92737.53;;;5.59;96.16
21742;BME280;11033;47.490;11.116;2023-03-25T04:16:34;92746.94;;;5.68;95.70
21742;BME280;11033;47.490;11.116;2023-03-25T04:19:02;92748.06;;;5.74;95.19
21742;BME280;11033;47.490;11.116;2023-03-25T04:21:28;92747.59;;;5.70;96.89
21742;BME280;11033;47.490;11.116;2023-03-25T04:23:54;92745.59;;;5.81;93.60
21742;BME280;11033;47.490;11.116;2023-03-25T04:26:19;92751.13;;;5.94;92.51
21742;BME280;11033;47.490;11.116;2023-03-25T04:28:45;92743.47;;;5.92;92.33
21742;BME280;11033;47.490;11.116;2023-03-25T04:31:13;92743.94;;;5.96;90.12
21742;BME280;11033;47.490;11.116;2023-03-25T04:33:44;92738.69;;;5.96;86.86
21742;BME280;11033;47.490;11.116;2023-03-25T04:36:11;92736.72;;;5.98;88.46
21742;BME280;11033;47.490;11.116;2023-03-25T04:38:37;92734.75;;;6.00;89.32
21742;BME280;11033;47.490;11.116;2023-03-25T04:41:02;92737.38;;;6.00;91.30
21742;BME280;11033;47.490;11.116;2023-03-25T04:43:31;92734.75;;;6.00;90.27
21742;BME280;11033;47.490;11.116;2023-03-25T04:45:56;92730.47;;;6.07;89.62
21742;BME280;11033;47.490;11.116;2023-03-25T04:48:26;92727.22;;;6.05;90.13
21742;BME280;11033;47.490;11.116;2023-03-25T04:50:57;92723.56;;;6.14;89.27
21742;BME280;11033;47.490;11.116;2023-03-25T04:53:24;92711.00;;;6.10;88.23
21742;BME280;11033;47.490;11.116;2023-03-25T04:55:49;92707.56;;;6.09;89.04
21742;BME280;11033;47.490;11.116;2023-03-25T04:58:16;92706.88;;;6.15;87.71
21742;BME280;11033;47.490;11.116;2023-03-25T05:00:46;92700.03;;;6.14;87.16
21742;BME280;11033;47.490;11.116;2023-03-25T05:03:13;92700.72;;;6.08;88.08
21742;BME280;11033;47.490;11.116;2023-03-25T05:05:40;92683.75;;;6.04;88.14
21742;BME280;11033;47.490;11.116;2023-03-25T05:08:05;92688.16;;;6.03;88.06
21742;BME280;11033;47.490;11.116;2023-03-25T05:10:31;92679.41;;;5.88;88.20
21742;BME280;11033;47.490;11.116;2023-03-25T05:13:03;92689.09;;;5.80;89.58
21742;BME280;11033;47.490;11.116;2023-03-25T05:15:29;92695.28;;;5.79;90.10
21742;BME280;11033;47.490;11.116;2023-03-25T05:17:56;92704.81;;;5.71;89.80
21742;BME280;11033;47.490;11.116;2023-03-25T05:20:21;92698.56;;;5.81;88.74
21742;BME280;11033;47.490;11.116;2023-03-25T05:22:47;92710.38;;;5.68;89.19
21742;BME280;11033;47.490;11.116;2023-03-25T05:25:12;92706.53;;;5.56;90.10
21742;BME280;11033;47.490;11.116;2023-03-25T05:27:38;92707.00;;;5.60;89.70
21742;BME280;11033;47.490;11.116;2023-03-25T05:30:04;92706.53;;;5.56;89.24
21742;BME280;11033;47.490;11.116;2023-03-25T05:32:30;92708.69;;;5.45;89.22
21742;BME280;11033;47.490;11.116;2023-03-25T05:34:59;92702.03;;;5.42;88.67
21742;BME280;11033;47.490;11.116;2023-03-25T05:37:25;92714.47;;;5.32;90.12
21742;BME280;11033;47.490;11.116;2023-03-25T05:39:51;92732.59;;;5.25;89.95
21742;BME280;11033;47.490;11.116;2023-03-25T05:42:16;92738.75;;;5.40;89.61
21742;BME280;11033;47.490;11.116;2023-03-25T05:44:42;92754.41;;;5.40;89.54
21742;BME280;11033;47.490;11.116;2023-03-25T05:47:20;92766.19;;;5.36;90.06
21742;BME280;11033;47.490;11.116;2023-03-25T05:49:48;92777.75;;;5.42;89.97
21742;BME280;11033;47.490;11.116;2023-03-25T05:52:15;92780.06;;;5.37;91.91
21742;BME280;11033;47.490;11.116;2023-03-25T05:54:44;92808.13;;;5.43;92.61
21742;BME280;11033;47.490;11.116;2023-03-25T05:57:11;92803.53;;;5.45;92.80
21742;BME280;11033;47.490;11.116;2023-03-25T05:59:37;92816.56;;;5.53;92.47
21742;BME280;11033;47.490;11.116;2023-03-25T06:02:12;92826.56;;;5.33;91.04
21742;BME280;11033;47.490;11.116;2023-03-25T06:04:38;92814.94;;;5.52;89.79
21742;BME280;11033;47.490;11.116;2023-03-25T06:07:09;92818.63;;;5.74;86.44
21742;BME280;11033;47.490;11.116;2023-03-25T06:09:41;92822.22;;;5.73;86.37
21742;BME280;11033;47.490;11.116;2023-03-25T06:12:15;92821.69;;;5.86;86.16
21742;BME280;11033;47.490;11.116;2023-03-25T06:14:41;92831.50;;;5.92;85.78
21742;BME280;11033;47.490;11.116;2023-03-25T06:17:14;92834.44;;;5.97;85.05
21742;BME280;11033;47.490;11.116;2023-03-25T06:19:40;92830.50;;;6.01;84.84
21742;BME280;11033;47.490;11.116;2023-03-25T06:22:07;92836.41;;;5.95;87.05
21742;BME280;11033;47.490;11.116;2023-03-25T06:24:37;92831.47;;;6.00;86.83
21742;BME280;11033;47.490;11.116;2023-03-25T06:27:05;92839.56;;;6.13;85.56
21742;BME280;11033;47.490;11.116;2023-03-25T06:29:34;92839.25;;;6.16;85.09
21742;BME280;11033;47.490;11.116;2023-03-25T06:32:02;92843.44;;;6.25;84.20
21742;BME280;11033;47.490;11.116;2023-03-25T06:34:27;92844.03;;;6.35;82.76
21742;BME280;11033;47.490;11.116;2023-03-25T06:36:53;92855.66;;;6.33;81.63
21742;BME280;11033;47.490;11.116;2023-03-25T06:39:20;92846.00;;;6.33;82.29
21742;BME280;11033;47.490;11.116;2023-03-25T06:41:45;92843.34;;;6.42;80.92
21742;BME280;11033;47.490;11.116;2023-03-25T06:44:11;92848.22;;;6.45;81.08
21742;BME280;11033;47.490;11.116;2023-03-25T06:46:37;92849.84;;;6.46;80.20
21742;BME280;11033;47.490;11.116;2023-03-25T06:49:02;92857.09;;;6.35;79.97
21742;BME280;11033;47.490;11.116;2023-03-25T06:51:27;92847.00;;;6.32;79.83
21742;BME280;11033;47.490;11.116;2023-03-25T06:53:53;92847.47;;;6.05;78.66
21742;BME280;11033;47.490;11.116;2023-03-25T06:56:18;92844.69;;;6.07;79.51
21742;BME280;11033;47.490;11.116;2023-03-25T06:58:44;92854.00;;;6.01;77.70
21742;BME280;11033;47.490;11.116;2023-03-25T07:01:09;92856.09;;;6.14;78.08
21742;BME280;11033;47.490;11.116;2023-03-25T07:03:36;92857.88;;;6.13;76.79
21742;BME280;11033;47.490;11.116;2023-03-25T07:06:02;92860.50;;;6.13;77.80
21742;BME280;11033;47.490;11.116;2023-03-25T07:08:28;92869.31;;;6.12;77.49
21742;BME280;11033;47.490;11.116;2023-03-25T07:10:59;92863.75;;;6.15;79.96
21742;BME280;11033;47.490;11.116;2023-03-25T07:13:25;92863.59;;;6.17;79.81
21742;BME280;11033;47.490;11.116;2023-03-25T07:15:53;92849.69;;;6.16;77.79
21742;BME280;11033;47.490;11.116;2023-03-25T07:18:19;92861.69;;;6.33;77.88
21742;BME280;11033;47.490;11.116;2023-03-25T07:20:45;92846.94;;;6.41;80.86
21742;BME280;11033;47.490;11.116;2023-03-25T07:23:10;92845.31;;;6.40;83.95
21742;BME280;11033;47.490;11.116;2023-03-25T07:25:35;92827.31;;;6.45;83.91
21742;BME280;11033;47.490;11.116;2023-03-25T07:28:01;92832.72;;;6.43;86.56
21742;BME280;11033;47.490;11.116;2023-03-25T07:30:26;92834.09;;;6.62;85.52
21742;BME280;11033;47.490;11.116;2023-03-25T07:32:51;92835.00;;;6.69;84.83
21742;BME280;11033;47.490;11.116;2023-03-25T07:35:16;92836.66;;;6.70;83.83
21742;BME280;11033;47.490;11.116;2023-03-25T07:37:42;92835.94;;;6.76;82.19
21742;BME280;11033;47.490;11.116;2023-03-25T07:40:07;92838.63;;;6.68;84.74
21742;BME280;11033;47.490;11.116;2023-03-25T07:42:35;92835.47;;;6.95;84.90
21742;BME280;11033;47.490;11.116;2023-03-25T07:45:00;92832.44;;;7.07;84.98
21742;BME280;11033;47.490;11.116;2023-03-25T07:47:26;92835.06;;;7.07;86.07
21742;BME280;11033;47.490;11.116;2023-03-25T07:49:51;92828.72;;;7.01;79.87
21742;BME280;11033;47.490;11.116;2023-03-25T07:52:16;92828.34;;;7.27;77.98
21742;BME280;11033;47.490;11.116;2023-03-25T07:54:41;92821.69;;;7.39;76.35
21742;BME280;11033;47.490;11.116;2023-03-25T07:57:07;92820.97;;;7.45;78.22
21742;BME280;11033;47.490;11.116;2023-03-25T07:59:32;92834.34;;;7.65;78.93
21742;BME280;11033;47.490;11.116;2023-03-25T08:01:57;92827.47;;;7.79;78.76
21742;BME280;11033;47.490;11.116;2023-03-25T08:04:23;92828.66;;;7.76;77.57
21742;BME280;11033;47.490;11.116;2023-03-25T08:06:48;92838.09;;;7.85;75.90
21742;BME280;11033;47.490;11.116;2023-03-25T08:09:13;92821.38;;;7.86;75.61
21742;BME280;11033;47.490;11.116;2023-03-25T08:11:38;92826.44;;;7.88;73.84
21742;BME280;11033;47.490;11.116;2023-03-25T08:14:04;92815.03;;;7.81;72.73
21742;BME280;11033;47.490;11.116;2023-03-25T08:16:29;92825.31;;;7.68;72.08
21742;BME280;11033;47.490;11.116;2023-03-25T08:18:54;92824.22;;;7.77;72.91
21742;BME280;11033;47.490;11.116;2023-03-25T08:21:20;92834.72;;;7.77;72.31
21742;BME280;11033;47.490;11.116;2023-03-25T08:23:56;92832.38;;;7.97;72.77
21742;BME280;11033;47.490;11.116;2023-03-25T08:26:29;92820.56;;;7.86;71.38
21742;BME280;11033;47.490;11.116;2023-03-25T08:28:56;92821.88;;;8.11;72.71
21742;BME280;11033;47.490;11.116;2023-03-25T08:31:25;92832.25;;;8.19;72.72
21742;BME280;11033;47.490;11.116;2023-03-25T08:33:56;92828.88;;;7.89;71.30
21742;BME280;11033;47.490;11.116;2023-03-25T08:36:21;92832.31;;;7.90;71.52
21742;BME280;11033;47.490;11.116;2023-03-25T08:38:48;92826.69;;;7.93;71.87
21742;BME280;11033;47.490;11.116;2023-03-25T08:41:13;92814.84;;;7.97;71.73
21742;BME280;11033;47.490;11.116;2023-03-25T08:43:39;92808.78;;;7.97;70.87
21742;BME280;11033;47.490;11.116;2023-03-25T08:46:04;92800.28;;;7.94;70.43
21742;BME280;11033;47.490;11.116;2023-03-25T08:48:30;92793.06;;;7.97;69.47
21742;BME280;11033;47.490;11.116;2023-03-25T08:50:56;92797.28;;;8.12;70.47
21742;BME280;11033;47.490;11.116;2023-03-25T08:53:22;92791.97;;;8.42;70.06
21742;BME280;11033;47.490;11.116;2023-03-25T08:55:54;92788.59;;;8.63;68.77
21742;BME280;11033;47.490;11.116;2023-03-25T08:58:20;92790.28;;;8.70;68.07
21742;BME280;11033;47.490;11.116;2023-03-25T09:00:47;92785.91;;;8.77;68.54
21742;BME280;11033;47.490;11.116;2023-03-25T09:03:12;92783.56;;;8.89;69.51
21742;BME280;11033;47.490;11.116;2023-03-25T09:05:37;92781.38;;;8.93;68.29
21742;BME280;11033;47.490;11.116;2023-03-25T09:08:03;92780.94;;;8.89;66.95
21742;BME280;11033;47.490;11.116;2023-03-25T09:10:29;92781.00;;;9.17;67.72
21742;BME280;11033;47.490;11.116;2023-03-25T09:12:54;92778.38;;;9.17;67.75
21742;BME280;11033;47.490;11.116;2023-03-25T09:15:20;92778.25;;;9.25;67.55
21742;BME280;11033;47.490;11.116;2023-03-25T09:17:45;92781.63;;;9.47;67.44
21742;BME280;11033;47.490;11.116;2023-03-25T09:20:11;92771.97;;;9.26;64.73
21742;BME280;11033;47.490;11.116;2023-03-25T09:22:37;92773.59;;;9.55;67.56
21742;BME280;11033;47.490;11.116;2023-03-25T09:25:03;92774.56;;;9.82;66.85
21742;BME280;11033;47.490;11.116;2023-03-25T09:27:30;92778.22;;;9.81;65.16
21742;BME280;11033;47.490;11.116;2023-03-25T09:29:57;92778.97;;;9.75;64.38
21742;BME280;11033;47.490;11.116;2023-03-25T09:32:23;92777.09;;;10.03;64.56
21742;BME280;11033;47.490;11.116;2023-03-25T09:34:48;92776.94;;;10.11;65.57
21742;BME280;11033;47.490;11.116;2023-03-25T09:37:14;92774.31;;;10.11;64.96
21742;BME280;11033;47.490;11.116;2023-03-25T09:39:39;92780.91;;;10.35;66.87
21742;BME280;11033;47.490;11.116;2023-03-25T09:47:21;92788.25;;;10.46;63.88
21742;BME280;11033;47.490;11.116;2023-03-25T09:49:49;92788.31;;;10.66;64.16
21742;BME280;11033;47.490;11.116;2023-03-25T09:52:26;92787.97;;;10.35;61.31
21742;BME280;11033;47.490;11.116;2023-03-25T09:55:00;92784.31;;;9.88;61.52
21742;BME280;11033;47.490;11.116;2023-03-25T09:57:30;92781.28;;;9.91;60.35
21742;BME280;11033;47.490;11.116;2023-03-25T10:00:00;92782.69;;;9.87;60.71
21742;BME280;11033;47.490;11.116;2023-03-25T10:02:35;92775.97;;;9.50;61.90
21742;BME280;11033;47.490;11.116;2023-03-25T10:05:36;92775.00;;;9.23;60.86
21742;BME280;11033;47.490;11.116;2023-03-25T10:11:06;92760.72;;;9.67;61.47
21742;BME280;11033;47.490;11.116;2023-03-25T10:13:46;92759.19;;;9.79;61.22
21742;BME280;11033;47.490;11.116;2023-03-25T10:19:22;92766.34;;;9.64;59.93
21742;BME280;11033;47.490;11.116;2023-03-25T10:21:57;92773.06;;;10.07;62.72
21742;BME280;11033;47.490;11.116;2023-03-25T10:24:34;92760.09;;;9.99;59.68
21742;BME280;11033;47.490;11.116;2023-03-25T10:27:05;92748.34;;;10.02;60.04
21742;BME280;11033;47.490;11.116;2023-03-25T10:32:16;92758.84;;;9.95;59.95
21742;BME280;11033;47.490;11.116;2023-03-25T10:34:49;92758.47;;;10.05;59.82
21742;BME280;11033;47.490;11.116;2023-03-25T10:37:29;92751.63;;;10.10;59.31
21742;BME280;11033;47.490;11.116;2023-03-25T10:40:08;92761.44;;;10.30;60.49
21742;BME280;11033;47.490;11.116;2023-03-25T10:42:37;92753.72;;;10.22;59.79
21742;BME280;11033;47.490;11.116;2023-03-25T10:45:12;92742.63;;;10.33;57.58
21742;BME280;11033;47.490;11.116;2023-03-25T10:47:39;92750.53;;;10.39;57.51
21742;BME280;11033;47.490;11.116;2023-03-25T10:50:05;92748.81;;;10.18;55.55
21742;BME280;11033;47.490;11.116;2023-03-25T10:52:33;92732.69;;;10.35;58.33
21742;BME280;11033;47.490;11.116;2023-03-25T10:54:58;92740.81;;;10.40;57.00
21742;BME280;11033;47.490;11.116;2023-03-25T10:57:26;92739.66;;;10.49;58.00
21742;BME280;11033;47.490;11.116;2023-03-25T11:00:03;92736.00;;;10.57;55.28
21742;BME280;11033;47.490;11.116;2023-03-25T11:02:30;92730.69;;;10.37;56.20
21742;BME280;11033;47.490;11.116;2023-03-25T11:05:00;92730.94;;;10.48;56.07
21742;BME280;11033;47.490;11.116;2023-03-25T11:07:30;92731.16;;;10.67;57.03
21742;BME280;11033;47.490;11.116;2023-03-25T11:12:40;92725.09;;;10.66;56.20
21742;BME280;11033;47.490;11.116;2023-03-25T11:15:24;92720.41;;;10.48;54.89
21742;BME280;11033;47.490;11.116;2023-03-25T11:17:57;92719.41;;;10.63;54.50
21742;BME280;11033;47.490;11.116;2023-03-25T11:20:29;92720.59;;;10.47;54.92
21742;BME280;11033;47.490;11.116;2023-03-25T11:23:02;92727.50;;;10.55;54.46
21742;BME280;11033;47.490;11.116;2023-03-25T11:25:34;92727.00;;;10.25;53.48
21742;BME280;11033;47.490;11.116;2023-03-25T11:28:04;92737.84;;;10.08;53.83
21742;BME280;11033;47.490;11.116;2023-03-25T11:30:33;92732.34;;;10.51;54.44
21742;BME280;11033;47.490;11.116;2023-03-25T11:33:04;92711.53;;;10.83;54.31
21742;BME280;11033;47.490;11.116;2023-03-25T11:35:35;92714.97;;;11.29;56.62
21742;BME280;11033;47.490;11.116;2023-03-25T11:38:12;92716.16;;;11.47;54.40
21742;BME280;11033;47.490;11.116;2023-03-25T11:40:49;92715.69;;;11.69;55.51
21742;BME280;11033;47.490;11.116;2023-03-25T11:43:20;92706.59;;;11.72;53.77
21742;BME280;11033;47.490;11.116;2023-03-25T11:45:47;92703.13;;;11.65;53.78
21742;BME280;11033;47.490;11.116;2023-03-25T11:48:21;92702.34;;;11.71;52.48
21742;BME280;11033;47.490;11.116;2023-03-25T11:51:00;92711.25;;;11.63;52.69
21742;BME280;11033;47.490;11.116;2023-03-25T11:53:27;92718.16;;;11.71;51.92
21742;BME280;11033;47.490;11.116;2023-03-25T11:55:58;92711.25;;;11.83;53.33
21742;BME280;11033;47.490;11.116;2023-03-25T11:58:27;92713.28;;;11.74;51.99
21742;BME280;11033;47.490;11.116;2023-03-25T12:01:05;92707.00;;;11.56;53.54
21742;BME280;11033;47.490;11.116;2023-03-25T12:03:32;92690.53;;;11.87;53.85
21742;BME280;11033;47.490;11.116;2023-03-25T12:11:40;92664.22;;;13.06;53.87
21742;BME280;11033;47.490;11.116;2023-03-25T12:14:33;92651.69;;;13.45;52.16
21742;BME280;11033;47.490;11.116;2023-03-25T12:17:32;92656.22;;;12.88;49.47
21742;BME280;11033;47.490;11.116;2023-03-25T12:20:25;92647.38;;;12.76;48.69
21742;BME280;11033;47.490;11.116;2023-03-25T12:25:53;92623.28;;;14.07;49.78
21742;BME280;11033;47.490;11.116;2023-03-25T12:31:26;92614.41;;;15.61;47.68
21742;BME280;11033;47.490;11.116;2023-03-25T12:37:23;92619.22;;;16.73;44.58
21742;BME280;11033;47.490;11.116;2023-03-25T12:50:59;92606.75;;;18.45;39.15
21742;BME280;11033;47.490;11.116;2023-03-25T12:53:43;92596.47;;;18.80;38.82
21742;BME280;11033;47.490;11.116;2023-03-25T12:59:00;92610.13;;;19.16;38.74
21742;BME280;11033;47.490;11.116;2023-03-25T13:01:35;92598.81;;;19.04;37.02
21742;BME280;11033;47.490;11.116;2023-03-25T13:07:15;92609.38;;;18.40;38.17
21742;BME280;11033;47.490;11.116;2023-03-25T13:09:53;92610.31;;;17.85;36.36
21742;BME280;11033;47.490;11.116;2023-03-25T13:12:48;92607.63;;;17.46;37.14
21742;BME280;11033;47.490;11.116;2023-03-25T13:15:22;92609.63;;;18.16;37.13
21742;BME280;11033;47.490;11.116;2023-03-25T13:17:53;92623.19;;;17.54;36.97
21742;BME280;11033;47.490;11.116;2023-03-25T13:20:23;92611.81;;;17.76;35.04
21742;BME280;11033;47.490;11.116;2023-03-25T13:22:55;92624.50;;;18.12;35.61
21742;BME280;11033;47.490;11.116;2023-03-25T13:25:27;92612.00;;;18.34;36.90
21742;BME280;11033;47.490;11.116;2023-03-25T13:27:59;92600.56;;;18.88;37.51
21742;BME280;11033;47.490;11.116;2023-03-25T13:30:33;92601.84;;;17.88;35.22
21742;BME280;11033;47.490;11.116;2023-03-25T13:33:17;92608.88;;;18.43;35.83
21742;BME280;11033;47.490;11.116;2023-03-25T13:35:48;92606.06;;;18.27;37.36
21742;BME280;11033;47.490;11.116;2023-03-25T13:38:20;92614.97;;;17.39;35.47
21742;BME280;11033;47.490;11.116;2023-03-25T13:41:04;92621.13;;;17.06;35.50
21742;BME280;11033;47.490;11.116;2023-03-25T13:46:13;92631.28;;;16.35;38.18
21742;BME280;11033;47.490;11.116;2023-03-25T13:51:27;92613.94;;;17.06;39.59
21742;BME280;11033;47.490;11.116;2023-03-25T13:54:04;92615.72;;;17.18;39.53
21742;BME280;11033;47.490;11.116;2023-03-25T13:59:27;92600.47;;;18.07;37.69
21742;BME280;11033;47.490;11.116;2023-03-25T14:02:10;92591.41;;;18.08;39.40
21742;BME280;11033;47.490;11.116;2023-03-25T14:13:29;92621.91;;;17.40;35.28
21742;BME280;11033;47.490;11.116;2023-03-25T14:16:17;92622.91;;;18.11;35.02
21742;BME280;11033;47.490;11.116;2023-03-25T14:18:47;92614.47;;;18.19;34.41
21742;BME280;11033;47.490;11.116;2023-03-25T14:21:26;92613.56;;;18.30;33.86
21742;BME280;11033;47.490;11.116;2023-03-25T14:24:00;92612.09;;;18.45;33.93
21742;BME280;11033;47.490;11.116;2023-03-25T14:26:27;92612.97;;;17.85;33.95
21742;BME280;11033;47.490;11.116;2023-03-25T14:28:54;92607.97;;;18.59;34.28
21742;BME280;11033;47.490;11.116;2023-03-25T14:31:27;92619.09;;;18.51;31.34
21742;BME280;11033;47.490;11.116;2023-03-25T14:39:50;92607.09;;;19.71;32.25
21742;BME280;11033;47.490;11.116;2023-03-25T14:44:41;92628.91;;;18.67;31.35
21742;BME280;11033;47.490;11.116;2023-03-25T14:50:05;92654.44;;;18.19;30.79
21742;BME280;11033;47.490;11.116;2023-03-25T14:52:42;92642.00;;;18.03;30.16
21742;BME280;11033;47.490;11.116;2023-03-25T14:55:17;92622.53;;;17.81;32.64
21742;BME280;11033;47.490;11.116;2023-03-25T14:57:44;92616.56;;;17.73;30.79
21742;BME280;11033;47.490;11.116;2023-03-25T15:00:21;92627.59;;;17.82;31.89